Hurley, South Dakota
Current Conditions -  °F | °C
As of 2:56 PM on Wednesday 26 Nov 2014 (Local Time) from KFSD Reporting Station
Light Snow Light Snow  
Wind Chill:   Ceiling: 1700
Heat Index: 18°   Visibility: 9mi
Dew Point: 12°   Wind: 20mph
Humidity: 78%   Direction: 340°NNW
Pressure: 30.3"   Gusts: NA
Location:  43.28°N, 97.09°W
Report Text: KFSD 262056Z 34017KT 9SM -SN BKN017 BKN022 M08/M11 A3030 RMK AO2 SNB31 SLP282 P0000 60000 T10781111 53027
Loading
Personal Weather Stations






























Interactive Weather Map New forecast layout! Learn more

10-Day Weather Forecast

Advertisements
Track Severe Weather on mobile